ADDS METAR Data INFO
IDs: Format: Raw Decoded Include TAF

Data at: 0051 UTC 22 Oct 2017

KGLD 212353Z AUTO 32011KT 10SM CLR 12/M08 A3003 RMK AO2 SLP155 T01171078 10167 20117 53023
KGLD 212253Z AUTO 33015G22KT 10SM FEW110 15/M08 A3000 RMK AO2 PK WND 34028/2205 SLP141 T01501078
KGLD 212153Z AUTO 33017G27KT 10SM CLR 16/M08 A2997 RMK AO2 PK WND 32031/2137 SLP125 T01611078
KGLD 212053Z AUTO 33024G34KT 10SM CLR 16/M08 A2995 RMK AO2 PK WND 32034/2052 SLP121 T01611078 53005
KGLD 211953Z AUTO 34021G33KT 10SM CLR 16/M06 A2994 RMK AO2 PK WND 31034/1941 SLP116 T01611061
KGLD 211853Z AUTO 34024G32KT 10SM CLR 15/M04 A2993 RMK AO2 PK WND 33034/1758 SLP113 T01501044
KGLD 211753Z AUTO 33022G32KT 10SM FEW090 14/M02 A2993 RMK AO2 PK WND 34032/1723 SLP116 T01391022 10139 20072 51027
KGLD 211653Z AUTO 33019G27KT 10SM OVC090 10/00 A2991 RMK AO2 PK WND 33033/1638 SLP112 T01000000
KGLD 211553Z AUTO 33022G29KT 10SM OVC100 09/02 A2988 RMK AO2 PK WND 33031/1529 SLP105 T00890017
KGLD 211453Z AUTO 34023G35KT 10SM CLR 08/02 A2984 RMK AO2 PK WND 34048/1408 SLP090 T00780017 53040
KGLD 211353Z AUTO 34024G38KT 10SM FEW110 11/M06 A2979 RMK AO2 PK WND 34039/1337 PRESRR SLP067 T01111056
KGLD 211253Z AUTO 33017G28KT 10SM CLR 11/M06 A2975 RMK AO2 PK WND 34032/1238 SLP052 T01061056
KGLD 211153Z AUTO 32018G27KT 10SM CLR 11/M02 A2971 RMK AO2 PK WND 32027/1151 PRESRR SLP033 T01061022 10133 20106 53042
KGLD 211053Z AUTO 32014G26KT 10SM CLR 11/01 A2965 RMK AO2 PK WND 33029/1021 SLP005 T01110006
KGLD 210953Z AUTO 32017G26KT 10SM CLR 12/03 A2961 RMK AO2 PK WND 31026/0947 SLP989 T01220028
KGLD 210853Z AUTO 29013KT 10SM CLR 12/03 A2957 RMK AO2 PK WND 29034/0827 WSHFT 0817 SLP978 T01170033 53023
KGLD 210837Z AUTO 27012G26KT 10SM CLR 12/04 A2957 RMK AO2 PK WND 29034/0827 WSHFT 0817 T01220039
KGLD 210753Z AUTO 19013KT 10SM CLR 13/06 A2951 RMK AO2 SLP955 T01280056
KGLD 210653Z AUTO 18012KT 10SM CLR 13/07 A2950 RMK AO2 SLP952 T01330067 402670111
KGLD 210553Z AUTO 16011KT 10SM CLR 12/07 A2950 RMK AO2 SLP956 T01220067 10211 20122 50000
KGLD 210453Z AUTO 19012KT 10SM CLR 14/07 A2951 RMK AO2 SLP962 T01390067
KGLD 210353Z AUTO 17013KT 10SM CLR 13/07 A2951 RMK AO2 SLP966 T01330067
KGLD 210253Z AUTO 17012KT 10SM CLR 16/08 A2950 RMK AO2 SLP962 T01560078 58012
KGLD 210153Z AUTO 16009KT 10SM CLR 16/08 A2952 RMK AO2 SLP971 T01560078
KGLD 210053Z AUTO 16008KT 10SM CLR 16/08 A2953 RMK AO2 SLP977 T01560078
KGLD 202353Z AUTO 17011KT 10SM CLR 21/08 A2954 RMK AO2 SLP971 T02110078 10267 20211 56008
KGLD 202253Z AUTO 18014G24KT 10SM CLR 25/07 A2954 RMK AO2 PK WND 16031/2214 SLP968 T02500072
KGLD 202153Z AUTO 18023G32KT 10SM CLR 26/07 A2954 RMK AO2 PK WND 17035/2118 SLP967 T02560072
KGLD 202053Z AUTO 19020G27KT 10SM CLR 26/04 A2956 RMK AO2 PK WND 20032/2038 SLP975 T02560039 56025
KGLD 201953Z AUTO 18020G27KT 10SM CLR 24/06 A2958 RMK AO2 PK WND 17028/1902 SLP980 T02440056
KGLD 201853Z AUTO 19018G23KT 10SM CLR 24/08 A2962 RMK AO2 PK WND 18026/1828 SLP993 T02390083
KGLD 201753Z AUTO 20014G24KT 10SM CLR 22/08 A2965 RMK AO2 SLP007 T02220083 10222 20111 58021
KGLD 201653Z AUTO 19014KT 10SM CLR 18/11 A2968 RMK AO2 SLP023 T01780111
KGLD 201553Z AUTO 19013G22KT 10SM CLR 16/12 A2970 RMK AO2 PK WND 19028/1510 SLP031 T01560117
KGLD 201533Z AUTO 18017G24KT 10SM SCT011 14/11 A2971 RMK AO2 PK WND 19028/1510 T01440111
KGLD 201453Z AUTO 18016KT 10SM OVC010 14/11 A2972 RMK AO2 SLP038 T01390111 56016
KGLD 201414Z AUTO 17015KT 10SM BKN012 13/11 A2973 RMK AO2 T01280106
KGLD 201353Z AUTO 16015KT 10SM CLR 12/10 A2974 RMK AO2 SLP046 T01170100
KGLD 201253Z AUTO 17015KT 10SM CLR 11/10 A2975 RMK AO2 SLP051 T01110100